Time;durP1;ratioP1;P1;durP2;ratioP2;P2;SDS_P1;SDS_P2;PMS_P1;PMS_P2;Temp;Humidity;BMP_temperature;BMP_pressure;BME280_temperature;BME280_humidity;BME280_pressure;Samples;Min_cycle;Max_cycle;Signal;HPM_P1;HPM_P2
2022/08/08 00:02:28;;;;;;;0.80;0.80;;;;;;;;;;5119722;28;20213;-63
2022/08/08 00:04:57;;;;;;;0.80;0.80;;;;;;;;;;5119497;28;20533;-63
2022/08/08 00:07:29;;;;;;;0.70;0.70;;;;;;;;;;5119080;28;20203;-63
2022/08/08 00:10:03;;;;;;;0.70;0.70;;;;;;;;;;5118587;28;20203;-63
2022/08/08 00:12:38;;;;;;;1.05;0.80;;;;;;;;;;5118719;28;20285;-63
2022/08/08 00:15:10;;;;;;;0.70;0.70;;;;;;;;;;5119562;28;20252;-63
2022/08/08 00:17:41;;;;;;;1.25;0.80;;;;;;;;;;5119527;28;20535;-63
2022/08/08 00:20:09;;;;;;;0.80;0.80;;;;;;;;;;5118667;28;20546;-63
2022/08/08 00:22:40;;;;;;;0.95;0.80;;;;;;;;;;5118984;28;20616;-63
2022/08/08 00:25:11;;;;;;;0.80;0.80;;;;;;;;;;5135919;27;20675;-63
2022/08/08 00:27:41;;;;;;;0.82;0.82;;;;;;;;;;5139927;27;20521;-63
2022/08/08 00:30:10;;;;;;;0.80;0.80;;;;;;;;;;5139642;27;20255;-63
2022/08/08 00:32:43;;;;;;;0.70;0.68;;;;;;;;;;5139068;27;20206;-63
2022/08/08 00:35:26;;;;;;;1.20;0.70;;;;;;;;;;5139272;27;20287;-63
2022/08/08 00:38:09;;;;;;;0.75;0.75;;;;;;;;;;5139325;27;20202;-63
2022/08/08 00:40:51;;;;;;;0.80;0.80;;;;;;;;;;5123713;27;20550;-63
2022/08/08 00:43:30;;;;;;;0.70;0.70;;;;;;;;;;5116381;28;20218;-63
2022/08/08 00:46:12;;;;;;;1.75;0.73;;;;;;;;;;5118827;28;20313;-63
2022/08/08 00:49:00;;;;;;;0.57;0.57;;;;;;;;;;5116361;28;20496;-63
2022/08/08 00:51:44;;;;;;;0.75;0.70;;;;;;;;;;5118378;28;20591;-63
2022/08/08 00:54:41;;;;;;;0.70;0.70;;;;;;;;;;5118553;28;20554;-63
2022/08/08 00:57:26;;;;;;;0.70;0.70;;;;;;;;;;5118215;28;20264;-63
2022/08/08 01:00:11;;;;;;;0.80;0.80;;;;;;;;;;5118304;28;20470;-63
2022/08/08 01:02:58;;;;;;;0.82;0.77;;;;;;;;;;5118226;28;20251;-63
2022/08/08 01:05:46;;;;;;;0.80;0.70;;;;;;;;;;5118366;28;20198;-63
2022/08/08 01:08:27;;;;;;;0.60;0.60;;;;;;;;;;5131435;27;20266;-63
2022/08/08 01:11:05;;;;;;;0.70;0.70;;;;;;;;;;5138186;27;20202;-63
2022/08/08 01:13:57;;;;;;;0.80;0.80;;;;;;;;;;5138610;27;20209;-63
2022/08/08 01:16:44;;;;;;;0.70;0.70;;;;;;;;;;5113944;27;20226;-63
2022/08/08 01:19:29;;;;;;;0.88;0.88;;;;;;;;;;5138851;27;20263;-63
2022/08/08 01:22:14;;;;;;;0.80;0.80;;;;;;;;;;5135562;27;20198;-63
2022/08/08 01:24:48;;;;;;;0.70;0.70;;;;;;;;;;5118031;28;20295;-63
2022/08/08 01:27:30;;;;;;;0.70;0.70;;;;;;;;;;5117354;28;20206;-63
2022/08/08 01:30:18;;;;;;;0.68;0.60;;;;;;;;;;5074333;28;20206;-63
2022/08/08 01:33:03;;;;;;;0.70;0.70;;;;;;;;;;5084131;28;20203;-63
2022/08/08 01:35:48;;;;;;;0.70;0.70;;;;;;;;;;5116369;28;20222;-63
2022/08/08 01:38:36;;;;;;;0.75;0.70;;;;;;;;;;5117890;28;20203;-63
2022/08/08 01:41:05;;;;;;;0.60;0.60;;;;;;;;;;5117846;28;20203;-63
2022/08/08 01:43:52;;;;;;;0.60;0.60;;;;;;;;;;5117768;28;20211;-63
2022/08/08 01:46:28;;;;;;;1.13;0.60;;;;;;;;;;5116968;28;20206;-63
2022/08/08 01:49:08;;;;;;;0.70;0.70;;;;;;;;;;5117950;28;20264;-63
2022/08/08 01:51:41;;;;;;;0.85;0.85;;;;;;;;;;5117838;28;20210;-64
2022/08/08 01:54:15;;;;;;;0.70;0.70;;;;;;;;;;5117202;28;20264;-63
2022/08/08 01:56:48;;;;;;;1.80;0.77;;;;;;;;;;5117234;28;20475;-63
2022/08/08 01:59:34;;;;;;;0.70;0.70;;;;;;;;;;5117817;28;20230;-63
2022/08/08 02:02:07;;;;;;;0.68;0.68;;;;;;;;;;5117747;28;20275;-63
2022/08/08 02:04:38;;;;;;;0.95;0.80;;;;;;;;;;5117513;28;20202;-63
2022/08/08 02:07:09;;;;;;;0.70;0.70;;;;;;;;;;5117654;28;20567;-63
2022/08/08 02:09:47;;;;;;;0.70;0.70;;;;;;;;;;5117494;28;20202;-63
2022/08/08 02:12:21;;;;;;;0.90;0.77;;;;;;;;;;5117511;28;20547;-63
2022/08/08 02:14:52;;;;;;;0.77;0.70;;;;;;;;;;5117250;28;20286;-63
2022/08/08 02:17:23;;;;;;;0.60;0.60;;;;;;;;;;5117325;28;20210;-63
2022/08/08 02:19:56;;;;;;;0.80;0.70;;;;;;;;;;5116965;28;20203;-63
2022/08/08 02:22:30;;;;;;;0.65;0.65;;;;;;;;;;5117238;28;20264;-63
2022/08/08 02:25:00;;;;;;;0.80;0.80;;;;;;;;;;5135820;27;20268;-63
2022/08/08 02:27:30;;;;;;;0.73;0.73;;;;;;;;;;5142249;27;20483;-63
2022/08/08 02:30:05;;;;;;;0.60;0.60;;;;;;;;;;5141994;27;20210;-63
2022/08/08 02:32:54;;;;;;;0.88;0.80;;;;;;;;;;5141538;27;20275;-63
2022/08/08 02:35:40;;;;;;;0.75;0.75;;;;;;;;;;5133826;27;20233;-63
2022/08/08 02:38:31;;;;;;;0.80;0.80;;;;;;;;;;5141621;27;20210;-63
2022/08/08 02:41:18;;;;;;;0.70;0.70;;;;;;;;;;5133859;27;20203;-63
2022/08/08 02:43:53;;;;;;;0.77;0.77;;;;;;;;;;5141368;27;20201;-63
2022/08/08 02:46:39;;;;;;;0.80;0.80;;;;;;;;;;5141096;27;20198;-63
2022/08/08 02:49:24;;;;;;;0.80;0.80;;;;;;;;;;5141588;27;20530;-63
2022/08/08 02:51:58;;;;;;;0.98;0.80;;;;;;;;;;5140720;27;20229;-63
2022/08/08 02:54:49;;;;;;;0.90;0.90;;;;;;;;;;5141174;27;20279;-63
2022/08/08 02:57:31;;;;;;;0.82;0.82;;;;;;;;;;5141205;27;20206;-63
2022/08/08 03:00:16;;;;;;;0.80;0.80;;;;;;;;;;5141421;27;20296;-63
2022/08/08 03:02:58;;;;;;;0.90;0.90;;;;;;;;;;5141603;27;20209;-63
2022/08/08 03:05:37;;;;;;;0.73;0.70;;;;;;;;;;5120275;27;20540;-63
2022/08/08 03:08:28;;;;;;;1.23;0.95;;;;;;;;;;5123054;27;20199;-63
2022/08/08 03:11:16;;;;;;;0.90;0.90;;;;;;;;;;5119815;28;20617;-63
2022/08/08 03:13:47;;;;;;;0.80;0.80;;;;;;;;;;5120414;28;20210;-63
2022/08/08 03:16:27;;;;;;;0.82;0.82;;;;;;;;;;5120706;28;20273;-63
2022/08/08 03:19:01;;;;;;;0.80;0.80;;;;;;;;;;5119860;28;20286;-63
2022/08/08 03:21:28;;;;;;;0.98;0.90;;;;;;;;;;5120244;28;20256;-63
2022/08/08 03:23:57;;;;;;;0.75;0.75;;;;;;;;;;5119830;28;20243;-63
2022/08/08 03:26:28;;;;;;;0.80;0.80;;;;;;;;;;5120109;28;20244;-63
2022/08/08 03:28:59;;;;;;;0.70;0.70;;;;;;;;;;5120120;28;20659;-63
2022/08/08 03:34:14;;;;;;;0.70;0.70;;;;;;;;;;5126951;27;20193;-63
2022/08/08 03:36:42;;;;;;;0.88;0.80;;;;;;;;;;5140033;27;20328;-63
2022/08/08 03:39:13;;;;;;;0.90;0.90;;;;;;;;;;5139996;27;20210;-63
2022/08/08 03:41:41;;;;;;;0.70;0.70;;;;;;;;;;5139939;27;20202;-64
2022/08/08 03:44:08;;;;;;;0.88;0.88;;;;;;;;;;5140011;27;20203;-63
2022/08/08 03:46:45;;;;;;;1.25;0.70;;;;;;;;;;5140051;27;20198;-63
2022/08/08 03:49:18;;;;;;;0.80;0.80;;;;;;;;;;5139731;27;20202;-63
2022/08/08 03:51:46;;;;;;;0.85;0.70;;;;;;;;;;5140671;27;20210;-63
2022/08/08 03:54:15;;;;;;;0.80;0.80;;;;;;;;;;5139774;27;20213;-63
2022/08/08 03:56:43;;;;;;;1.20;0.80;;;;;;;;;;5139887;27;20254;-63
2022/08/08 03:59:10;;;;;;;0.80;0.80;;;;;;;;;;5139782;27;20635;-63
2022/08/08 04:01:38;;;;;;;0.93;0.93;;;;;;;;;;5131071;27;20631;-63
2022/08/08 04:04:06;;;;;;;0.80;0.80;;;;;;;;;;5119371;28;20210;-63
2022/08/08 04:06:33;;;;;;;0.98;0.90;;;;;;;;;;5118653;28;20207;-63
2022/08/08 04:09:01;;;;;;;0.73;0.73;;;;;;;;;;5118581;28;20203;-63
2022/08/08 04:11:31;;;;;;;0.60;0.60;;;;;;;;;;5118360;28;20202;-63
2022/08/08 04:13:59;;;;;;;0.90;0.90;;;;;;;;;;5118254;28;20313;-63
2022/08/08 04:16:26;;;;;;;0.70;0.70;;;;;;;;;;5118276;28;20219;-63
2022/08/08 04:18:54;;;;;;;0.70;0.70;;;;;;;;;;5118659;28;20262;-63
2022/08/08 04:21:21;;;;;;;0.80;0.70;;;;;;;;;;5118368;28;20210;-63
2022/08/08 04:23:48;;;;;;;1.42;0.85;;;;;;;;;;5121403;27;20264;-63
2022/08/08 04:26:16;;;;;;;0.80;0.80;;;;;;;;;;5139027;27;20540;-63
2022/08/08 04:28:44;;;;;;;0.70;0.70;;;;;;;;;;5138786;27;20195;-63
2022/08/08 04:31:12;;;;;;;0.60;0.60;;;;;;;;;;5138666;27;20198;-63
2022/08/08 04:33:39;;;;;;;0.80;0.80;;;;;;;;;;5138485;27;20206;-63
2022/08/08 04:36:07;;;;;;;0.80;0.80;;;;;;;;;;5137567;27;20275;-63
2022/08/08 04:38:35;;;;;;;0.85;0.85;;;;;;;;;;5137907;27;20210;-63
2022/08/08 04:41:02;;;;;;;0.70;0.70;;;;;;;;;;5138413;27;20210;-63
2022/08/08 04:43:30;;;;;;;0.95;0.95;;;;;;;;;;5138009;27;20214;-63
2022/08/08 04:45:59;;;;;;;0.70;0.70;;;;;;;;;;5136801;27;20202;-63
2022/08/08 04:48:26;;;;;;;0.70;0.70;;;;;;;;;;5137789;27;20202;-63
2022/08/08 04:50:54;;;;;;;0.80;0.80;;;;;;;;;;5137488;27;20274;-63
2022/08/08 04:53:21;;;;;;;0.77;0.77;;;;;;;;;;5137783;27;20263;-63
2022/08/08 04:55:48;;;;;;;0.80;0.80;;;;;;;;;;5136836;27;20219;-63
2022/08/08 04:58:16;;;;;;;1.25;0.70;;;;;;;;;;5138202;27;20210;-63
2022/08/08 05:00:43;;;;;;;1.20;0.90;;;;;;;;;;5137734;27;20553;-63
2022/08/08 05:03:12;;;;;;;0.80;0.80;;;;;;;;;;5138072;27;20279;-63
2022/08/08 05:05:39;;;;;;;0.90;0.90;;;;;;;;;;5138248;27;20520;-63
2022/08/08 05:08:07;;;;;;;0.80;0.80;;;;;;;;;;5137870;27;20193;-63
2022/08/08 05:10:34;;;;;;;0.90;0.90;;;;;;;;;;5137860;27;20274;-63
2022/08/08 05:13:01;;;;;;;0.63;0.63;;;;;;;;;;5137922;27;20265;-63
2022/08/08 05:15:29;;;;;;;0.70;0.70;;;;;;;;;;5137518;27;20212;-63
2022/08/08 05:17:57;;;;;;;0.80;0.80;;;;;;;;;;5137439;27;20195;-63
2022/08/08 05:20:25;;;;;;;0.80;0.80;;;;;;;;;;5138060;27;20214;-62
2022/08/08 05:22:52;;;;;;;0.70;0.70;;;;;;;;;;5137433;27;20202;-63
2022/08/08 05:25:20;;;;;;;0.80;0.80;;;;;;;;;;5136196;27;20218;-63
2022/08/08 05:27:47;;;;;;;1.02;0.93;;;;;;;;;;5137858;27;20475;-63
2022/08/08 05:30:14;;;;;;;0.75;0.75;;;;;;;;;;5136753;27;20210;-63
2022/08/08 05:32:42;;;;;;;2.70;0.80;;;;;;;;;;5137400;27;20662;-62
2022/08/08 05:35:10;;;;;;;3.42;1.20;;;;;;;;;;5137359;27;20594;-62
2022/08/08 05:37:40;;;;;;;5.20;0.90;;;;;;;;;;5136836;27;20552;-62
2022/08/08 05:40:07;;;;;;;3.42;0.80;;;;;;;;;;5136991;28;20213;-62
2022/08/08 05:42:38;;;;;;;3.42;1.30;;;;;;;;;;5137013;28;21181;-63
2022/08/08 05:45:06;;;;;;;1.63;0.98;;;;;;;;;;5137315;28;20210;-63
2022/08/08 05:47:33;;;;;;;4.07;1.20;;;;;;;;;;5136378;28;20285;-62
2022/08/08 05:50:03;;;;;;;1.63;0.80;;;;;;;;;;5136860;28;20549;-62
2022/08/08 05:52:30;;;;;;;2.47;0.82;;;;;;;;;;5136614;28;20624;-62
2022/08/08 05:54:59;;;;;;;1.33;0.82;;;;;;;;;;5137000;28;20209;-62
2022/08/08 05:57:28;;;;;;;1.98;1.13;;;;;;;;;;5137857;27;20283;-63
2022/08/08 05:59:58;;;;;;;0.98;0.85;;;;;;;;;;5141210;27;20552;-62
2022/08/08 06:05:11;;;;;;;1.30;1.08;;;;;;;;;;5140727;27;20273;-63
2022/08/08 06:07:39;;;;;;;1.90;1.10;;;;;;;;;;5140445;27;20259;-62
2022/08/08 06:10:08;;;;;;;2.15;0.90;;;;;;;;;;5140504;27;20213;-62
2022/08/08 06:12:36;;;;;;;2.03;1.17;;;;;;;;;;5139992;27;20274;-62
2022/08/08 06:15:05;;;;;;;1.55;1.13;;;;;;;;;;5140331;27;20651;-62
2022/08/08 06:17:33;;;;;;;1.70;1.13;;;;;;;;;;5140570;27;20221;-62
2022/08/08 06:20:01;;;;;;;2.08;1.30;;;;;;;;;;5139912;27;20195;-62
2022/08/08 06:22:29;;;;;;;1.10;1.00;;;;;;;;;;5140072;27;20214;-62
2022/08/08 06:24:56;;;;;;;2.08;1.30;;;;;;;;;;5139376;27;20230;-62
2022/08/08 06:27:30;;;;;;;1.95;1.08;;;;;;;;;;5140698;27;20206;-63
2022/08/08 06:30:03;;;;;;;3.35;1.27;;;;;;;;;;5140639;27;20656;-62
2022/08/08 06:32:31;;;;;;;4.07;1.20;;;;;;;;;;5139527;27;20210;-62
2022/08/08 06:35:00;;;;;;;1.38;0.98;;;;;;;;;;5139489;27;20247;-62
2022/08/08 06:37:29;;;;;;;1.77;1.10;;;;;;;;;;5139702;27;20218;-62
2022/08/08 06:39:57;;;;;;;1.15;1.05;;;;;;;;;;5139665;27;20239;-62
2022/08/08 06:42:30;;;;;;;1.40;1.08;;;;;;;;;;5139801;27;20631;-62
2022/08/08 06:44:57;;;;;;;1.02;0.90;;;;;;;;;;5139131;27;20209;-62
2022/08/08 06:47:24;;;;;;;2.10;1.23;;;;;;;;;;5121482;27;20199;-62
2022/08/08 06:49:52;;;;;;;1.55;1.15;;;;;;;;;;5118865;28;20210;-62
2022/08/08 06:52:19;;;;;;;1.98;1.20;;;;;;;;;;5118819;28;20218;-63
2022/08/08 06:54:48;;;;;;;1.30;1.00;;;;;;;;;;5118337;28;20210;-62
2022/08/08 06:57:15;;;;;;;1.40;1.30;;;;;;;;;;5117856;28;20288;-62
2022/08/08 06:59:44;;;;;;;1.27;0.98;;;;;;;;;;5118490;28;20215;-63
2022/08/08 07:02:18;;;;;;;1.48;1.15;;;;;;;;;;5117313;28;20206;-63
2022/08/08 07:04:51;;;;;;;1.10;1.00;;;;;;;;;;5117784;28;20198;-62
2022/08/08 07:07:23;;;;;;;1.48;1.20;;;;;;;;;;5117182;28;20215;-62
2022/08/08 07:09:55;;;;;;;1.20;1.10;;;;;;;;;;5116734;28;20194;-62
2022/08/08 07:12:26;;;;;;;1.52;1.00;;;;;;;;;;5117308;28;20199;-62
2022/08/08 07:15:00;;;;;;;1.85;1.30;;;;;;;;;;5134144;27;20229;-62
2022/08/08 07:17:28;;;;;;;2.15;1.30;;;;;;;;;;5137695;27;20218;-62
2022/08/08 07:20:02;;;;;;;1.65;1.27;;;;;;;;;;5137552;27;20209;-62
2022/08/08 07:22:34;;;;;;;1.75;1.20;;;;;;;;;;5137586;27;20213;-62
2022/08/08 07:25:02;;;;;;;1.38;1.27;;;;;;;;;;5137463;27;20230;-62
2022/08/08 07:27:33;;;;;;;1.80;1.17;;;;;;;;;;5137549;27;20201;-62
2022/08/08 07:30:02;;;;;;;1.92;1.17;;;;;;;;;;5138485;27;20507;-62
2022/08/08 07:32:30;;;;;;;1.63;1.25;;;;;;;;;;5137915;27;20259;-62
2022/08/08 07:34:59;;;;;;;1.42;1.30;;;;;;;;;;5137517;27;20549;-62
2022/08/08 07:37:27;;;;;;;1.38;1.20;;;;;;;;;;5136498;27;20222;-62
2022/08/08 07:39:57;;;;;;;2.53;1.20;;;;;;;;;;5137477;27;20202;-62
2022/08/08 07:42:24;;;;;;;1.30;1.20;;;;;;;;;;5134620;27;20558;-62
2022/08/08 07:44:52;;;;;;;1.23;1.05;;;;;;;;;;5137664;27;20570;-62
2022/08/08 07:47:21;;;;;;;1.38;1.27;;;;;;;;;;5137764;27;20210;-62
2022/08/08 07:49:48;;;;;;;2.05;1.30;;;;;;;;;;5137498;27;20202;-62
2022/08/08 07:52:16;;;;;;;1.30;1.20;;;;;;;;;;5135445;27;20199;-62
2022/08/08 07:54:45;;;;;;;1.20;1.10;;;;;;;;;;5137074;27;20594;-62
2022/08/08 07:57:17;;;;;;;1.58;1.40;;;;;;;;;;5136973;27;20229;-62
2022/08/08 07:59:49;;;;;;;1.38;1.20;;;;;;;;;;5136281;27;20251;-62
2022/08/08 08:02:21;;;;;;;2.10;1.20;;;;;;;;;;5137058;27;20582;-62
2022/08/08 08:04:52;;;;;;;1.20;1.10;;;;;;;;;;5137420;27;20318;-62
2022/08/08 08:07:20;;;;;;;1.58;1.40;;;;;;;;;;5136381;27;20590;-62
2022/08/08 08:09:48;;;;;;;1.20;1.10;;;;;;;;;;5136388;27;20214;-62
2022/08/08 08:12:17;;;;;;;1.83;1.50;;;;;;;;;;5136822;27;20202;-62
2022/08/08 08:14:48;;;;;;;1.80;1.30;;;;;;;;;;5136533;27;20199;-62
2022/08/08 08:17:18;;;;;;;1.50;1.23;;;;;;;;;;5135409;27;20257;-62
2022/08/08 08:19:50;;;;;;;2.35;1.30;;;;;;;;;;5136630;27;20640;-62
2022/08/08 08:22:19;;;;;;;1.50;1.40;;;;;;;;;;5135961;27;20317;-62
2022/08/08 08:24:47;;;;;;;1.83;1.20;;;;;;;;;;5136702;27;20530;-63
2022/08/08 08:27:15;;;;;;;1.48;1.20;;;;;;;;;;5136829;27;20739;-62
2022/08/08 08:29:42;;;;;;;1.40;1.30;;;;;;;;;;5136820;27;20603;-61
2022/08/08 08:32:09;;;;;;;1.20;1.10;;;;;;;;;;5135945;27;20202;-62
2022/08/08 08:34:37;;;;;;;2.25;1.20;;;;;;;;;;5136027;27;20209;-62
2022/08/08 08:37:04;;;;;;;1.42;1.33;;;;;;;;;;5134612;27;20521;-62
2022/08/08 08:39:33;;;;;;;1.45;1.30;;;;;;;;;;5135293;27;20267;-62
2022/08/08 08:42:01;;;;;;;1.90;1.35;;;;;;;;;;5135529;27;20198;-62
2022/08/08 08:44:30;;;;;;;1.30;1.20;;;;;;;;;;5136021;27;20202;-63
2022/08/08 08:46:57;;;;;;;1.65;1.52;;;;;;;;;;5135750;27;20228;-62
2022/08/08 08:49:25;;;;;;;1.60;1.40;;;;;;;;;;5136623;27;20201;-62
2022/08/08 08:51:53;;;;;;;1.42;1.10;;;;;;;;;;5136089;27;20484;-62
2022/08/08 08:54:22;;;;;;;1.52;1.40;;;;;;;;;;5135105;27;20202;-62
2022/08/08 08:56:51;;;;;;;1.95;1.20;;;;;;;;;;5135745;27;20542;-62
2022/08/08 08:59:19;;;;;;;1.55;1.20;;;;;;;;;;5135890;27;20271;-62
2022/08/08 09:01:50;;;;;;;1.20;1.10;;;;;;;;;;5135778;27;20210;-62
2022/08/08 09:04:21;;;;;;;1.45;1.20;;;;;;;;;;5135814;27;20273;-62
2022/08/08 09:06:50;;;;;;;1.45;1.30;;;;;;;;;;5135022;27;20570;-62
2022/08/08 09:09:18;;;;;;;1.40;1.25;;;;;;;;;;5135319;27;20206;-62
2022/08/08 09:11:46;;;;;;;1.27;1.17;;;;;;;;;;5134738;27;20203;-62
2022/08/08 09:14:15;;;;;;;1.40;1.15;;;;;;;;;;5135216;27;20570;-62
2022/08/08 09:16:43;;;;;;;1.70;1.30;;;;;;;;;;5135131;27;20258;-62
2022/08/08 09:19:11;;;;;;;1.60;1.48;;;;;;;;;;5134478;27;20226;-62
2022/08/08 09:21:38;;;;;;;1.35;1.10;;;;;;;;;;5135114;27;20281;-62
2022/08/08 09:24:06;;;;;;;1.30;1.20;;;;;;;;;;5133872;27;20237;-62
2022/08/08 09:26:41;;;;;;;1.20;1.10;;;;;;;;;;5134412;27;20717;-62
2022/08/08 09:29:09;;;;;;;1.48;1.30;;;;;;;;;;5134391;27;20198;-62
2022/08/08 09:31:47;;;;;;;1.52;1.30;;;;;;;;;;5133587;27;20270;-62
2022/08/08 09:34:15;;;;;;;1.92;1.33;;;;;;;;;;5134260;27;20774;-62
2022/08/08 09:36:43;;;;;;;1.17;1.08;;;;;;;;;;5135014;27;20217;-62
2022/08/08 09:39:12;;;;;;;1.70;1.33;;;;;;;;;;5134359;27;20294;-62
2022/08/08 09:41:40;;;;;;;1.45;1.35;;;;;;;;;;5134760;28;20197;-62
2022/08/08 09:44:13;;;;;;;1.38;1.27;;;;;;;;;;5135130;28;20326;-62
2022/08/08 09:46:43;;;;;;;1.55;1.30;;;;;;;;;;5134952;27;20205;-62
2022/08/08 09:49:11;;;;;;;1.50;1.30;;;;;;;;;;5135402;28;20255;-62
2022/08/08 09:51:39;;;;;;;1.38;1.27;;;;;;;;;;5134684;28;20275;-62
2022/08/08 09:54:07;;;;;;;1.40;1.10;;;;;;;;;;5135211;27;20202;-63
2022/08/08 09:56:36;;;;;;;1.42;1.20;;;;;;;;;;5135131;27;20210;-62
2022/08/08 09:59:05;;;;;;;1.40;1.17;;;;;;;;;;5133513;27;20287;-62
2022/08/08 10:01:33;;;;;;;1.25;1.15;;;;;;;;;;5133860;28;20194;-62
2022/08/08 10:04:02;;;;;;;1.30;1.10;;;;;;;;;;5134393;28;20202;-62
2022/08/08 10:06:30;;;;;;;1.40;1.30;;;;;;;;;;5134406;28;20608;-62
2022/08/08 10:08:57;;;;;;;1.20;1.10;;;;;;;;;;5134980;28;20259;-62
2022/08/08 10:11:25;;;;;;;1.20;1.10;;;;;;;;;;5134304;28;20206;-62
2022/08/08 10:13:54;;;;;;;1.40;1.30;;;;;;;;;;5134484;28;20209;-62
2022/08/08 10:16:21;;;;;;;1.40;1.30;;;;;;;;;;5134760;27;20198;-63
2022/08/08 10:18:49;;;;;;;1.40;1.30;;;;;;;;;;5134238;28;20637;-62
2022/08/08 10:21:19;;;;;;;1.30;1.20;;;;;;;;;;5134205;28;20267;-62
2022/08/08 10:23:47;;;;;;;1.50;1.38;;;;;;;;;;5133462;28;20357;-63
2022/08/08 10:26:19;;;;;;;1.38;1.27;;;;;;;;;;5132188;28;20221;-62
2022/08/08 10:28:53;;;;;;;1.50;1.40;;;;;;;;;;5134043;27;20206;-62
2022/08/08 10:34:09;;;;;;;1.20;1.10;;;;;;;;;;5132224;27;20594;-62
2022/08/08 10:36:38;;;;;;;1.25;1.15;;;;;;;;;;5133587;27;20558;-62
2022/08/08 10:39:06;;;;;;;1.40;1.30;;;;;;;;;;5133661;27;20491;-62
2022/08/08 10:41:37;;;;;;;1.70;1.40;;;;;;;;;;5133860;28;20206;-62
2022/08/08 10:44:05;;;;;;;1.63;1.40;;;;;;;;;;5133090;27;20206;-63
2022/08/08 10:46:34;;;;;;;1.50;1.40;;;;;;;;;;5137225;27;20285;-62
2022/08/08 10:49:01;;;;;;;1.30;1.20;;;;;;;;;;5137800;27;20742;-62
2022/08/08 10:51:29;;;;;;;1.30;1.20;;;;;;;;;;5135962;27;20203;-62
2022/08/08 10:53:59;;;;;;;1.30;1.20;;;;;;;;;;5135707;27;20198;-63
2022/08/08 10:56:27;;;;;;;1.20;1.10;;;;;;;;;;5136629;27;20638;-62
2022/08/08 10:58:57;;;;;;;1.30;1.20;;;;;;;;;;5137758;27;20233;-63
2022/08/08 11:01:28;;;;;;;1.38;1.27;;;;;;;;;;5136757;27;20210;-62
2022/08/08 11:03:57;;;;;;;1.35;1.25;;;;;;;;;;5137496;27;20246;-63
2022/08/08 11:06:29;;;;;;;1.30;1.20;;;;;;;;;;5136875;27;20203;-62
2022/08/08 11:09:02;;;;;;;1.63;1.30;;;;;;;;;;5136754;27;20206;-62
2022/08/08 11:11:37;;;;;;;1.15;1.10;;;;;;;;;;5136633;27;20201;-62
2022/08/08 11:14:05;;;;;;;1.42;1.10;;;;;;;;;;5136073;27;20201;-62
2022/08/08 11:16:33;;;;;;;1.30;1.20;;;;;;;;;;5137754;27;20202;-62
2022/08/08 11:19:01;;;;;;;1.25;1.15;;;;;;;;;;5135716;27;20275;-62
2022/08/08 11:21:29;;;;;;;1.15;1.10;;;;;;;;;;5136663;27;20689;-63
2022/08/08 11:23:59;;;;;;;1.38;1.25;;;;;;;;;;5136184;27;20242;-63
2022/08/08 11:26:28;;;;;;;1.20;1.10;;;;;;;;;;5136933;27;20194;-62
2022/08/08 11:28:57;;;;;;;1.08;1.08;;;;;;;;;;5136776;27;20569;-62
2022/08/08 11:31:26;;;;;;;1.15;1.15;;;;;;;;;;5136714;27;20202;-62
2022/08/08 11:33:56;;;;;;;1.17;1.15;;;;;;;;;;5136530;27;20399;-62
2022/08/08 11:36:23;;;;;;;1.10;1.00;;;;;;;;;;5136774;27;20231;-62
2022/08/08 11:38:51;;;;;;;1.30;1.20;;;;;;;;;;5136116;27;20218;-62
2022/08/08 11:41:19;;;;;;;1.13;1.10;;;;;;;;;;5136608;27;20282;-62
2022/08/08 11:43:48;;;;;;;1.23;1.15;;;;;;;;;;5137720;27;20202;-62
2022/08/08 11:46:16;;;;;;;1.00;0.90;;;;;;;;;;5136925;27;20286;-62
2022/08/08 11:48:44;;;;;;;1.30;1.20;;;;;;;;;;5137649;27;20259;-62
2022/08/08 11:51:11;;;;;;;1.00;1.00;;;;;;;;;;5137693;27;20206;-63
2022/08/08 11:53:39;;;;;;;1.20;1.10;;;;;;;;;;5136847;27;20202;-63
2022/08/08 11:56:06;;;;;;;1.35;1.25;;;;;;;;;;5136559;27;20202;-62
2022/08/08 11:58:33;;;;;;;1.55;1.20;;;;;;;;;;5136829;27;20229;-62
2022/08/08 12:01:05;;;;;;;1.27;1.17;;;;;;;;;;5136640;27;20662;-62
2022/08/08 12:03:33;;;;;;;1.20;1.15;;;;;;;;;;5135926;27;20210;-62
2022/08/08 12:06:11;;;;;;;1.48;1.20;;;;;;;;;;5136257;27;20285;-63
2022/08/08 12:08:40;;;;;;;1.50;1.30;;;;;;;;;;5136005;27;20198;-62
2022/08/08 12:11:10;;;;;;;1.30;1.20;;;;;;;;;;5136224;27;20199;-62
2022/08/08 12:13:38;;;;;;;1.20;1.10;;;;;;;;;;5135821;27;20194;-62
2022/08/08 12:16:11;;;;;;;1.58;1.27;;;;;;;;;;5137307;27;20204;-62
2022/08/08 12:18:46;;;;;;;1.17;1.10;;;;;;;;;;5136472;27;20321;-63
2022/08/08 12:21:23;;;;;;;1.23;1.13;;;;;;;;;;5136639;27;20262;-62
2022/08/08 12:23:51;;;;;;;1.20;1.10;;;;;;;;;;5135735;27;20294;-63
2022/08/08 12:26:20;;;;;;;1.80;1.10;;;;;;;;;;5135288;27;20194;-62
2022/08/08 12:28:57;;;;;;;1.40;1.30;;;;;;;;;;5135212;27;20190;-62
2022/08/08 12:31:34;;;;;;;1.30;1.20;;;;;;;;;;5135823;27;20202;-62
2022/08/08 12:34:02;;;;;;;1.10;1.05;;;;;;;;;;5134355;27;20198;-63
2022/08/08 12:36:39;;;;;;;1.50;1.40;;;;;;;;;;5134832;27;20203;-62
2022/08/08 12:39:07;;;;;;;1.15;1.05;;;;;;;;;;5135280;27;20312;-63
2022/08/08 12:41:35;;;;;;;1.27;1.23;;;;;;;;;;5134827;27;20293;-62
2022/08/08 12:44:06;;;;;;;1.13;1.13;;;;;;;;;;5135211;27;20206;-62
2022/08/08 12:46:35;;;;;;;1.20;1.10;;;;;;;;;;5134476;27;20287;-62
2022/08/08 12:49:03;;;;;;;0.90;0.90;;;;;;;;;;5135795;27;20203;-63
2022/08/08 12:51:40;;;;;;;1.95;1.30;;;;;;;;;;5135194;27;20594;-62
2022/08/08 12:54:08;;;;;;;1.20;1.10;;;;;;;;;;5134816;27;20550;-62
2022/08/08 12:56:36;;;;;;;1.15;1.10;;;;;;;;;;5134703;27;20198;-62
2022/08/08 12:59:14;;;;;;;1.08;1.02;;;;;;;;;;5134737;27;20224;-62
2022/08/08 13:01:49;;;;;;;1.17;1.10;;;;;;;;;;5134645;27;20210;-62
2022/08/08 13:04:18;;;;;;;1.33;1.23;;;;;;;;;;5134513;27;20206;-62
2022/08/08 13:06:59;;;;;;;1.65;1.15;;;;;;;;;;5133830;27;20565;-62
2022/08/08 13:09:30;;;;;;;1.10;1.00;;;;;;;;;;5133630;27;20194;-62
2022/08/08 13:11:58;;;;;;;1.35;1.20;;;;;;;;;;5134730;27;20203;-62
2022/08/08 13:14:36;;;;;;;1.30;1.20;;;;;;;;;;5134047;27;20198;-62
2022/08/08 13:17:06;;;;;;;1.05;1.05;;;;;;;;;;5134527;27;20309;-62
2022/08/08 13:19:33;;;;;;;1.17;1.08;;;;;;;;;;5134521;27;20282;-62
2022/08/08 13:22:01;;;;;;;1.02;1.00;;;;;;;;;;5135391;27;20475;-62
2022/08/08 13:24:29;;;;;;;1.15;1.10;;;;;;;;;;5134777;27;20592;-63
2022/08/08 13:27:03;;;;;;;1.10;1.10;;;;;;;;;;5134612;27;20237;-63
2022/08/08 13:29:32;;;;;;;1.05;1.05;;;;;;;;;;5135196;27;20202;-62
2022/08/08 13:32:02;;;;;;;1.10;1.00;;;;;;;;;;5133433;27;20209;-62
2022/08/08 13:34:31;;;;;;;1.05;1.05;;;;;;;;;;5133086;27;20194;-62
2022/08/08 13:36:59;;;;;;;1.30;1.20;;;;;;;;;;5134611;27;20198;-62
2022/08/08 13:39:26;;;;;;;1.20;1.10;;;;;;;;;;5134316;27;20225;-62
2022/08/08 13:41:54;;;;;;;1.40;1.30;;;;;;;;;;5116945;28;20582;-62
2022/08/08 13:44:22;;;;;;;1.38;1.27;;;;;;;;;;5134742;28;20195;-62
2022/08/08 13:46:56;;;;;;;1.30;1.20;;;;;;;;;;5133819;28;20651;-62
2022/08/08 13:49:24;;;;;;;1.58;1.05;;;;;;;;;;5134266;28;20259;-62
2022/08/08 13:51:56;;;;;;;0.95;0.95;;;;;;;;;;5135094;28;20202;-62
2022/08/08 13:54:25;;;;;;;1.20;1.10;;;;;;;;;;5133873;28;20199;-62
2022/08/08 13:57:02;;;;;;;1.30;1.20;;;;;;;;;;5134892;28;20305;-62
2022/08/08 13:59:30;;;;;;;1.55;1.45;;;;;;;;;;5133915;28;20629;-62
2022/08/08 14:01:58;;;;;;;1.25;1.15;;;;;;;;;;5134311;28;20216;-62
2022/08/08 14:04:26;;;;;;;1.30;1.20;;;;;;;;;;5134568;28;20555;-62
2022/08/08 14:07:04;;;;;;;1.27;1.17;;;;;;;;;;5134032;28;20206;-63
2022/08/08 14:09:36;;;;;;;0.90;0.90;;;;;;;;;;5132999;27;20205;-62
2022/08/08 14:12:05;;;;;;;1.00;1.00;;;;;;;;;;5134752;28;20257;-62
2022/08/08 14:14:39;;;;;;;1.33;1.00;;;;;;;;;;5134300;28;20264;-62
2022/08/08 14:17:07;;;;;;;1.55;1.10;;;;;;;;;;5133815;27;20222;-62
2022/08/08 14:19:41;;;;;;;1.27;1.10;;;;;;;;;;5136912;27;20270;-63
2022/08/08 14:22:23;;;;;;;1.40;1.10;;;;;;;;;;5138170;27;20207;-63
2022/08/08 14:24:54;;;;;;;1.25;1.15;;;;;;;;;;5138003;27;20272;-63
2022/08/08 14:27:25;;;;;;;1.20;1.10;;;;;;;;;;5138555;27;20229;-62
2022/08/08 14:29:54;;;;;;;1.40;1.30;;;;;;;;;;5138022;27;20485;-63
2022/08/08 14:32:21;;;;;;;1.00;1.00;;;;;;;;;;5137456;27;20210;-62
2022/08/08 14:34:52;;;;;;;1.20;1.10;;;;;;;;;;5137357;27;20520;-62
2022/08/08 14:37:21;;;;;;;1.98;1.10;;;;;;;;;;5136852;27;20198;-62
2022/08/08 14:39:52;;;;;;;1.00;1.00;;;;;;;;;;5136957;27;20222;-62
2022/08/08 14:42:30;;;;;;;1.20;1.08;;;;;;;;;;5138826;27;20277;-62
2022/08/08 14:44:58;;;;;;;1.38;1.17;;;;;;;;;;5136880;27;20206;-62
2022/08/08 14:47:25;;;;;;;1.23;1.13;;;;;;;;;;5137742;27;20263;-63
2022/08/08 14:50:04;;;;;;;1.20;1.10;;;;;;;;;;5137726;27;20206;-62
2022/08/08 14:52:40;;;;;;;1.50;1.40;;;;;;;;;;5138115;27;20198;-62
2022/08/08 14:55:09;;;;;;;1.02;1.00;;;;;;;;;;5137682;27;20607;-62
2022/08/08 14:57:36;;;;;;;1.58;1.20;;;;;;;;;;5137163;27;20194;-62
2022/08/08 15:00:05;;;;;;;1.30;1.05;;;;;;;;;;5137446;27;20287;-62
2022/08/08 15:02:33;;;;;;;1.35;1.17;;;;;;;;;;5127278;27;20274;-62
2022/08/08 15:05:00;;;;;;;1.40;1.15;;;;;;;;;;5137262;27;20209;-63
2022/08/08 15:07:27;;;;;;;1.30;1.20;;;;;;;;;;5138088;27;20261;-62
2022/08/08 15:09:56;;;;;;;1.55;1.45;;;;;;;;;;5138502;27;20199;-62
2022/08/08 15:12:23;;;;;;;1.10;0.93;;;;;;;;;;5137603;27;20202;-63
2022/08/08 15:14:50;;;;;;;1.30;1.20;;;;;;;;;;5137654;27;20194;-63
2022/08/08 15:17:18;;;;;;;1.33;1.00;;;;;;;;;;5136569;27;20682;-63